Flight Track Log - Related Links

Times and Time Zones

All times are in EST time to prevent confusion due to time zone crossing. See the EJA929 flight status page for this flight to view local times or setup timezone preferences in your user account.

Time Position Orientation Groundspeed Altitude Reporting Facility
EST Latitude Longitude Course Direction KTS MPH feet Rate Location/Type
Mon 08:56:41 AM 40.9000 -74.1167 270° West 218 251 4,000  Level New York TRACON
Mon 08:58:30 AM 40.8342 -74.2242 231° Southwest 233 268 6,800 1,740 Climbing New York Center
Mon 08:59:30 AM 40.7839 -74.3011 229° Southwest 238 274 8,900 2,100 Climbing New York Center
Mon 09:00:30 AM 40.7631 -74.3711 249° West 238 274 11,000 1,800 Climbing New York Center
Mon 09:01:30 AM 40.7375 -74.4519 247° West 258 297 12,500 2,100 Climbing New York Center
Mon 09:02:30 AM 40.7094 -74.5517 250° West 282 325 15,200 2,650 Climbing New York Center
Mon 09:03:30 AM 40.6747 -74.6592 247° West 292 336 17,800 2,500 Climbing New York Center
Mon 09:04:30 AM 40.6489 -74.7425 248° West 286 329 20,200 2,300 Climbing New York Center
Mon 09:05:30 AM 40.6039 -74.8439 240° Southwest 292 336 22,400 2,050 Climbing New York Center
Mon 09:06:30 AM 40.5614 -74.9286 237° Southwest 312 359 24,300 2,150 Climbing New York Center
Mon 09:07:30 AM 40.5122 -75.0214 235° Southwest 312 359 26,700 2,067 Climbing New York Center
Mon 09:08:29 AM 40.4583 -75.1244 236° Southwest 312 359 28,400 1,600 Climbing New York Center
Mon 09:09:30 AM 40.4069 -75.2192 235° Southwest 325 374 29,900 1,587 Climbing New York Center
Mon 09:10:30 AM 40.3531 -75.3219 235° Southwest 331 381 31,600 1,650 Climbing New York Center
Mon 09:11:30 AM 40.3036 -75.4111 234° Southwest 343 395 33,200 1,650 Climbing New York Center
Mon 09:12:30 AM 40.2472 -75.5189 236° Southwest 349 402 34,900 1,450 Climbing New York Center
Mon 09:13:30 AM 40.1819 -75.6369 234° Southwest 365 420 36,100 1,150 Climbing New York Center
Mon 09:14:30 AM 40.1272 -75.7469 237° Southwest 365 420 37,200 1,000 Climbing New York Center
Mon 09:15:30 AM 40.0706 -75.8542 235° Southwest 365 420 38,100 900 Climbing New York Center
Mon 09:16:30 AM 40.0058 -75.9578 231° Southwest 375 432 39,000 850 Climbing New York Center
Mon 09:17:30 AM 39.9408 -76.0586 230° Southwest 375 432 39,800 700 Climbing New York Center
Mon 09:18:30 AM 39.8756 -76.1619 231° Southwest 375 432 40,400 650 Climbing New York Center
Mon 09:19:30 AM 39.8103 -76.2678 231° Southwest 375 432 41,100 698 Climbing New York Center
Mon 09:20:39 AM 39.7339 -76.3794 228° Southwest 348 400 41,900 651 Climbing Washington Center
Mon 09:21:39 AM 39.6750 -76.4786 232° Southwest 348 400 42,500 500 Climbing Washington Center
Mon 09:22:39 AM 39.6139 -76.5639 227° Southwest 356 410 42,900 248 Climbing Washington Center
Mon 09:23:40 AM 39.5506 -76.6628 230° Southwest 362 417 43,000 50 Climbing Washington Center
Mon 09:24:40 AM 39.4872 -76.7639 231° Southwest 362 417 43,000  Level Washington Center
Mon 09:25:41 AM 39.4194 -76.8675 230° Southwest 367 422 43,000  Level Washington Center
Mon 09:26:41 AM 39.3514 -76.9711 230° Southwest 377 434 43,000  Level Washington Center
Mon 09:27:39 AM 39.2814 -77.0769 230° Southwest 377 434 43,000  Level Washington Center
Mon 09:28:40 AM 39.2114 -77.1828 230° Southwest 377 434 43,000  Level Washington Center
Mon 09:29:41 AM 39.1433 -77.2883 230° Southwest 382 440 43,000  Level Washington Center
Mon 09:30:41 AM 39.0708 -77.3964 229° Southwest 393 452 43,000  Level Washington Center
Mon 09:31:39 AM 38.9983 -77.5039 229° Southwest 399 459 43,000  Level Washington Center
Mon 09:32:40 AM 38.9256 -77.6142 230° Southwest 404 465 43,000  Level Washington Center
Mon 09:33:41 AM 38.8444 -77.7319 229° Southwest 404 465 43,000  Level Washington Center
Mon 09:34:39 AM 38.7714 -77.8417 230° Southwest 404 465 43,000  Level Washington Center
Mon 09:35:40 AM 38.6964 -77.9511 229° Southwest 409 471 43,000  Level Washington Center
Mon 09:36:41 AM 38.6233 -78.0603 229° Southwest 404 465 43,000  Level Washington Center
Mon 09:37:38 AM 38.5500 -78.1694 229° Southwest 404 465 43,000  Level Washington Center
Mon 09:38:39 AM 38.4769 -78.2756 229° Southwest 404 465 43,000  Level Washington Center
Mon 09:39:40 AM 38.4036 -78.3842 229° Southwest 399 459 43,000  Level Washington Center
Mon 09:40:40 AM 38.3278 -78.4953 229° Southwest 404 465 43,000  Level Washington Center
Mon 09:41:39 AM 38.2586 -78.6008 230° Southwest 404 465 43,000  Level Washington Center
Mon 09:42:40 AM 38.1806 -78.7114 228° Southwest 404 465 43,000  Level Washington Center
Mon 09:43:41 AM 38.1047 -78.8217 229° Southwest 409 471 43,000  Level Washington Center
Mon 09:44:41 AM 38.0289 -78.9292 228° Southwest 414 476 43,000  Level Washington Center
Mon 09:45:39 AM 37.9614 -79.0264 229° Southwest 414 476 43,000  Level Washington Center
Mon 09:46:40 AM 37.8894 -79.1389 231° Southwest 414 476 43,000  Level Washington Center
Mon 09:47:40 AM 37.8294 -79.2569 237° Southwest 414 476 43,000  Level Washington Center
Mon 09:48:41 AM 37.7694 -79.3775 238° Southwest 414 476 43,000  Level Washington Center
Mon 09:49:41 AM 37.7025 -79.5081 237° Southwest 407 468 43,000  Level Washington Center
Mon 09:51:51 AM 37.5767 -79.7608 238° Southwest 409 471 43,000  Level Atlanta Center
Mon 09:52:51 AM 37.5161 -79.8767 237° Southwest 409 471 43,000  Level Atlanta Center
Mon 09:53:51 AM 37.4556 -79.9975 238° Southwest 404 465 43,000  Level Atlanta Center
Mon 09:54:51 AM 37.3889 -80.1264 237° Southwest 404 465 43,000  Level Atlanta Center
Mon 09:55:51 AM 37.3278 -80.2442 237° Southwest 404 465 43,000  Level Atlanta Center
Mon 09:56:51 AM 37.2689 -80.3592 237° Southwest 404 465 43,000  Level Atlanta Center
Mon 09:57:51 AM 37.2097 -80.4739 237° Southwest 404 465 43,000  Level Atlanta Center
Mon 09:58:51 AM 37.1564 -80.5806 238° Southwest 404 465 43,000  Level Atlanta Center
Mon 09:59:51 AM 37.0931 -80.7006 237° Southwest 404 465 43,000  Level Atlanta Center
Mon 10:00:51 AM 37.0464 -80.8219 244° Southwest 399 459 43,000  Level Atlanta Center
Mon 10:01:51 AM 37.0014 -80.9461 246° West 394 453 43,000  Level Atlanta Center
Mon 10:02:51 AM 36.9547 -81.0828 247° West 389 448 43,000  Level Atlanta Center
Mon 10:03:51 AM 36.9097 -81.2039 245° Southwest 389 448 43,000  Level Atlanta Center
Mon 10:04:51 AM 36.8667 -81.3275 247° West 389 448 43,000  Level Atlanta Center
Mon 10:05:51 AM 36.8214 -81.4508 245° Southwest 389 448 43,000  Level Atlanta Center
Mon 10:06:51 AM 36.7800 -81.5742 247° West 389 448 43,000  Level Atlanta Center
Mon 10:07:51 AM 36.7344 -81.6972 245° Southwest 384 442 43,000  Level Atlanta Center
Mon 10:08:51 AM 36.6911 -81.8228 247° West 384 442 43,000  Level Atlanta Center
Mon 10:09:51 AM 36.6431 -81.9456 244° Southwest 384 442 43,000  Level Atlanta Center
Mon 10:10:51 AM 36.5972 -82.0683 245° Southwest 389 448 43,000  Level Atlanta Center
Mon 10:11:51 AM 36.5428 -82.1861 240° Southwest 395 455 43,000  Level Atlanta Center
Mon 10:12:51 AM 36.4778 -82.2986 234° Southwest 409 471 43,000  Level Atlanta Center
Mon 10:13:51 AM 36.4144 -82.4108 235° Southwest 409 471 43,000  Level Atlanta Center
Mon 10:14:51 AM 36.3492 -82.5231 234° Southwest 409 471 43,000  Level Atlanta Center
Mon 10:15:51 AM 36.2839 -82.6375 235° Southwest 409 471 43,000  Level Atlanta Center
Mon 10:16:51 AM 36.2225 -82.7389 233° Southwest 409 471 43,000  Level Atlanta Center
Mon 10:17:51 AM 36.1569 -82.8533 235° Southwest 409 471 43,000  Level Atlanta Center
Mon 10:18:51 AM 36.0911 -82.9672 234° Southwest 409 471 43,000  Level Atlanta Center
Mon 10:19:51 AM 36.0253 -83.0786 234° Southwest 409 471 43,000  Level Atlanta Center
Mon 10:20:51 AM 35.9594 -83.1922 234° Southwest 409 471 43,000  Level Atlanta Center
Mon 10:21:51 AM 35.8892 -83.3186 236° Southwest 409 471 43,000  Level Atlanta Center
Mon 10:22:51 AM 35.8211 -83.4317 233° Southwest 409 471 43,000  Level Atlanta Center
Mon 10:23:51 AM 35.7547 -83.5447 234° Southwest 409 471 43,000  Level Atlanta Center
Mon 10:24:51 AM 35.6883 -83.6578 234° Southwest 409 471 43,000  Level Atlanta Center
Mon 10:25:51 AM 35.6219 -83.7681 233° Southwest 409 471 43,000  Level Atlanta Center
Mon 10:26:51 AM 35.5533 -83.8781 233° Southwest 409 471 43,000  Level Atlanta Center
Mon 10:27:51 AM 35.4867 -83.9928 235° Southwest 409 471 43,000  Level Atlanta Center
Mon 10:28:51 AM 35.4219 -84.1025 234° Southwest 409 471 43,000  Level Atlanta Center
Mon 10:29:51 AM 35.3531 -84.2144 233° Southwest 409 471 43,000  Level Atlanta Center
Mon 10:30:51 AM 35.2881 -84.3211 233° Southwest 409 471 43,000  Level Atlanta Center
Mon 10:31:51 AM 35.2211 -84.4353 234° Southwest 404 465 43,000  Level Atlanta Center
Mon 10:32:51 AM 35.1539 -84.5469 234° Southwest 404 465 43,000  Level Atlanta Center
Mon 10:33:51 AM 35.0844 -84.6556 232° Southwest 404 465 43,000  Level Atlanta Center
Mon 10:34:51 AM 35.0172 -84.7717 235° Southwest 409 471 43,000  Level Atlanta Center
Mon 10:35:51 AM 34.9475 -84.8825 233° Southwest 415 478 43,000  Level Atlanta Center
Mon 10:36:51 AM 34.8778 -84.9958 233° Southwest 415 478 43,000  Level Atlanta Center
Mon 10:37:51 AM 34.8061 -85.1089 232° Southwest 420 483 43,000  Level Atlanta Center
Mon 10:38:51 AM 34.7383 -85.2217 234° Southwest 420 483 43,000  Level Atlanta Center
Mon 10:39:51 AM 34.6703 -85.3344 234° Southwest 420 483 43,000  Level Atlanta Center
Mon 10:40:51 AM 34.6067 -85.4344 232° Southwest 420 483 43,000  Level Atlanta Center
Mon 10:41:51 AM 34.5364 -85.5467 233° Southwest 420 483 43,000  Level Atlanta Center
Mon 10:42:51 AM 34.4639 -85.6614 233° Southwest 425 489 43,000  Level Atlanta Center
Mon 10:43:51 AM 34.3936 -85.7708 232° Southwest 425 489 43,000  Level Atlanta Center
Mon 10:44:51 AM 34.3147 -85.8922 232° Southwest 425 489 43,000  Level Atlanta Center
Mon 10:45:51 AM 34.2439 -86.0064 233° Southwest 425 489 43,000  Level Atlanta Center
Mon 10:46:51 AM 34.1711 -86.1178 232° Southwest 430 495 43,000  Level Atlanta Center
Mon 10:47:51 AM 34.1003 -86.2339 234° Southwest 430 495 43,000  Level Atlanta Center
Mon 10:48:51 AM 34.0272 -86.3447 232° Southwest 430 495 43,000  Level Atlanta Center
Mon 10:49:51 AM 33.9542 -86.4606 233° Southwest 430 495 43,000  Level Atlanta Center
Mon 10:50:51 AM 33.8808 -86.5736 232° Southwest 430 495 43,000  Level Atlanta Center
Mon 10:51:51 AM 33.8097 -86.6839 232° Southwest 430 495 43,000  Level Atlanta Center
Mon 10:52:51 AM 33.7342 -86.7989 232° Southwest 430 495 43,000  Level Atlanta Center
Mon 10:53:51 AM 33.6625 -86.9139 233° Southwest 430 495 43,000  Level Atlanta Center
Mon 10:54:51 AM 33.6136 -87.0394 245° Southwest 424 488 43,000  Level Atlanta Center
Mon 10:55:51 AM 33.5667 -87.1700 247° West 424 488 43,000  Level Atlanta Center
Mon 10:56:51 AM 33.5217 -87.2956 247° West 424 488 43,000  Level Atlanta Center
Mon 10:57:33 AM 33.4939 -87.3756 247° West 422 486 43,000  Level Memphis Center
Mon 10:58:35 AM 33.4458 -87.5033 246° West 422 486 43,000  Level Memphis Center
Mon 10:59:37 AM 33.3978 -87.6317 246° West 422 486 43,000  Level Memphis Center
Mon 11:00:39 AM 33.3397 -87.7858 246° West 422 486 43,000  Level Memphis Center
Mon 11:01:41 AM 33.2908 -87.9147 246° West 422 486 43,000  Level Memphis Center
Mon 11:02:43 AM 33.2419 -88.0439 246° West 423 487 43,000  Level Memphis Center
Mon 11:03:45 AM 33.1919 -88.1728 245° Southwest 424 488 43,000  Level Memphis Center
Mon 11:04:47 AM 33.1406 -88.3069 245° Southwest 428 493 43,000  Level Memphis Center
Mon 11:05:49 AM 33.0919 -88.4347 246° West 428 493 43,000  Level Memphis Center
Mon 11:06:51 AM 33.0428 -88.5636 246° West 428 493 43,000  Level Memphis Center
Mon 11:07:53 AM 32.9825 -88.7167 245° Southwest 428 493 43,000  Level Memphis Center
Mon 11:08:55 AM 32.9319 -88.8447 245° Southwest 428 493 43,000  Level Memphis Center
Mon 11:09:57 AM 32.8822 -88.9719 245° Southwest 428 493 43,000  Level Memphis Center
Mon 11:10:59 AM 32.8331 -89.1003 246° West 428 493 43,000  Level Memphis Center
Mon 11:12:02 AM 32.7817 -89.2283 245° Southwest 428 493 43,000  Level Memphis Center
Mon 11:13:04 AM 32.7317 -89.3558 245° Southwest 428 493 43,000  Level Memphis Center
Mon 11:14:06 AM 32.6703 -89.5092 245° Southwest 428 493 43,000  Level Memphis Center
Mon 11:15:08 AM 32.6192 -89.6361 244° Southwest 428 493 43,000  Level Memphis Center
Mon 11:16:10 AM 32.5683 -89.7644 245° Southwest 428 493 43,000  Level Memphis Center
Mon 11:17:12 AM 32.5172 -89.8919 245° Southwest 428 493 43,000  Level Memphis Center
Mon 11:18:14 AM 32.4664 -90.0181 244° Southwest 428 493 43,000  Level Memphis Center
Mon 11:19:16 AM 32.4131 -90.1453 244° Southwest 428 493 43,000  Level Memphis Center
Mon 11:20:18 AM 32.3414 -90.2922 240° Southwest 428 493 43,000  Level Memphis Center
Mon 11:21:20 AM 32.2825 -90.4136 240° Southwest 429 494 43,000  Level Memphis Center
Mon 11:22:22 AM 32.2253 -90.5367 241° Southwest 428 493 43,000  Level Memphis Center
Mon 11:23:24 AM 32.1664 -90.6586 240° Southwest 428 493 43,000  Level Memphis Center
Mon 11:24:26 AM 32.1075 -90.7789 240° Southwest 428 493 43,000  Level Memphis Center
Mon 11:25:29 AM 32.0375 -90.9267 241° Southwest 430 495 43,000  Level Memphis Center
Mon 11:26:31 AM 31.9794 -91.0469 240° Southwest 429 494 43,000  Level Memphis Center
Mon 11:27:33 AM 31.9192 -91.1678 240° Southwest 429 494 43,000  Level Memphis Center
Mon 11:28:35 AM 31.8592 -91.2886 240° Southwest 429 494 43,000  Level Memphis Center
Mon 11:29:37 AM 31.8064 -91.4131 244° Southwest 429 494 43,000  Level Memphis Center
Mon 11:30:39 AM 31.7450 -91.5636 244° Southwest 429 494 43,000  Level Memphis Center
Mon 11:31:41 AM 31.6942 -91.6889 245° Southwest 429 494 43,000  Level Memphis Center
Mon 11:33:06 AM 31.6264 -91.8564 245° Southwest 428 493 43,000  Level Houston Center
Mon 11:34:08 AM 31.5744 -91.9833 244° Southwest 431 496 43,000  Level Houston Center
Mon 11:35:10 AM 31.5192 -92.1164 244° Southwest 432 497 43,000  Level Houston Center
Mon 11:36:12 AM 31.4669 -92.2419 244° Southwest 430 495 43,000  Level Houston Center
Mon 11:37:14 AM 31.4050 -92.3933 244° Southwest 430 495 43,000  Level Houston Center
Mon 11:38:16 AM 31.3514 -92.5189 243° Southwest 432 497 43,000  Level Houston Center
Mon 11:39:18 AM 31.2972 -92.6431 243° Southwest 431 496 43,000  Level Houston Center
Mon 11:40:20 AM 31.2475 -92.7725 246° West 433 498 43,000  Level Houston Center
Mon 11:41:23 AM 31.1939 -92.8975 243° Southwest 433 498 43,000  Level Houston Center
Mon 11:42:25 AM 31.1303 -93.0483 244° Southwest 433 498 43,000  Level Houston Center
Mon 11:43:27 AM 31.0761 -93.1742 243° Southwest 434 499 43,000 -871 Level Houston Center
Mon 11:44:29 AM 31.0233 -93.2986 244° Southwest 432 497 41,200 -1,968 Descending Houston Center
Mon 11:45:32 AM 30.9714 -93.4203 244° Southwest 424 488 38,900 -2,226 Descending Houston Center
Mon 11:46:33 AM 30.9178 -93.5464 244° Southwest 434 499 36,600 -2,390 Descending Houston Center
Mon 11:47:35 AM 30.8550 -93.6925 243° Southwest 422 486 34,000 -2,352 Descending Houston Center
Mon 11:48:38 AM 30.8022 -93.8147 243° Southwest 424 488 31,700 -2,208 Descending Houston Center
Mon 11:49:40 AM 30.7467 -93.9414 243° Southwest 439 505 29,400 -2,313 Descending Houston Center
Mon 11:50:14 AM 30.7142 -94.0167 243° Southwest 429 494 28,000 -2,348 Descending Houston Center
Mon 11:50:26 AM 30.7025 -94.0450 244° Southwest 415 478 27,600 -1,714 Descending Houston Center
Mon 11:50:42 AM 30.6947 -94.0611 241° Southwest 423 487 27,200 -2,262 Descending Houston Center
Mon 11:51:27 AM 30.6475 -94.1692 243° Southwest 408 470 25,300 -2,129 Descending Houston Center
Mon 11:51:44 AM 30.6439 -94.1794 248° West 413 475 25,000 -2,164 Descending Houston Center
Mon 11:52:28 AM 30.5981 -94.2828 243° Southwest 412 474 23,100 -2,419 Descending Houston Center
Mon 11:52:46 AM 30.5833 -94.3181 244° Southwest 407 468 22,500 -2,066 Descending Houston Center
Mon 11:53:29 AM 30.5467 -94.4011 243° Southwest 399 459 21,000 -2,032 Descending Houston Center
Mon 11:53:48 AM 30.5350 -94.4292 244° Southwest 396 456 20,400 -1,929 Descending Houston Center
Mon 11:54:25 AM 30.5033 -94.4967 241° Southwest 366 421 19,200 -1,619 Descending Houston Center
Mon 11:54:51 AM 30.4897 -94.5250 241° Southwest 377 434 18,700 -1,672 Descending Houston Center
Mon 11:55:26 AM 30.4475 -94.5911 233° Southwest 355 409 17,500 -2,032 Descending Houston Center
Mon 11:55:53 AM 30.4269 -94.6222 233° Southwest 359 413 16,600 -1,967 Descending Houston Center
Mon 11:56:27 AM 30.3869 -94.6839 233° Southwest 333 383 15,500 -1,548 Descending Houston Center
Mon 11:56:55 AM 30.3731 -94.7089 237° Southwest 337 388 15,000 -1,672 Descending Houston Center
Mon 11:57:28 AM 30.3358 -94.7631 231° Southwest 305 351 13,800 -1,839 Descending Houston Center
Mon 11:57:57 AM 30.3117 -94.8019 234° Southwest 308 354 13,100 -787 Descending Houston Center
Mon 11:58:29 AM 30.2847 -94.8447 234° Southwest 315 362 13,000 -581 Descending Houston Center
Mon 11:58:59 AM 30.2592 -94.8836 233° Southwest 313 360 12,500 -2,262 Descending Houston Center
Mon 11:59:30 AM 30.2294 -94.9267 231° Southwest 320 368 10,700 -2,323 Descending Houston Center
Mon 12:00:01 PM 30.2058 -94.9650 235° Southwest 317 365 10,100 -689 Descending Houston Center
Mon 12:00:31 PM 30.1764 -95.0081 232° Southwest 279 321 10,000 -97 Descending Houston Center
Mon 12:01:03 PM 30.1578 -95.0400 236° Southwest 299 344 10,000  Level Houston Center
Mon 12:01:32 PM 30.1139 -95.0811 219° Southwest 345 397 10,000  Level Houston Center
Mon 12:02:06 PM 30.0797 -95.0956 200° South 334 384 10,000  Level Houston Center
Mon 12:02:33 PM 30.0269 -95.1183 200° South 331 381 10,000  Level Houston Center
Mon 12:03:08 PM 29.9944 -95.1317 200° South 329 379 10,000 -774 Level Houston Center
Mon 12:03:35 PM 29.9483 -95.1522 201° Southwest 275 316 9,200 -1,742 Descending Houston Center
Mon 12:04:10 PM 29.9069 -95.1683 199° South 283 326 8,200 -928 Descending Houston Center
Mon 12:05:12 PM 29.8333 -95.2003 201° Southwest 283 326 7,700 -966 Descending Houston Center
Mon 12:05:37 PM 29.7989 -95.2164 202° Southwest 278 320 6,800 -1,548 Descending Houston Center
Mon 12:06:14 PM 29.7608 -95.2303 198° South 280 322 6,100 -787 Descending Houston Center
Mon 12:06:38 PM 29.7228 -95.2353 187° South 268 308 6,000 -97 Descending Houston Center
Mon 12:07:16 PM 29.6872 -95.2342 178° South 272 313 6,000  Level Houston Center
Mon 12:07:38 PM 29.6475 -95.2372 184° South 264 304 6,000  Level Houston Center
Mon 12:08:18 PM 29.6025 -95.2372 180° South 263 303 6,000  Level Houston Center
Mon 12:08:40 PM 29.5744 -95.2436 191° South 263 303 6,000  Level Houston Center
Mon 12:09:21 PM 29.5439 -95.2692 216° Southwest 239 275 6,000 -197 Level Houston Center
Mon 12:09:41 PM 29.5217 -95.2861 214° Southwest 216 249 5,800 -774 Descending Houston Center
Mon 12:10:23 PM 29.4917 -95.3106 215° Southwest 231 266 5,200 -984 Descending Houston Center
Mon 12:10:42 PM 29.4708 -95.3258 213° Southwest 217 250 4,800 -1,548 Descending Houston Center
Mon 12:11:25 PM 29.4678 -95.3628 265° West 219 252 3,600 -1,770 Descending Houston Center
Mon 12:11:43 PM 29.4869 -95.3864 313° West 214 246 3,000 -581 Descending Houston Center
Mon 12:12:27 PM 29.5178 -95.3961 345° North 221 254 3,000  Level Houston Center
Mon 12:12:44 PM 29.5417 -95.3892 14° North 211 243 3,000 -871 Level Houston Center
Mon 12:13:29 PM 29.5731 -95.3589 40° Northeast 200 230 2,100 -1,180 Descending Houston Center
Mon 12:13:45 PM 29.5803 -95.3511 43° Northeast 169 194 1,800 -871 Descending Houston Center
Mon 12:14:31 PM 29.6003 -95.3272 46° Northeast 166 191 1,200 -787 Descending Houston Center
Mon 12:14:46 PM 29.6047 -95.3217 47° Northeast 122 140 1,000 -677 Descending Houston Center
Mon 12:15:33 PM 29.6253 -95.3003 42° Northeast 139 160 500 -689 Descending Houston Center
Mon 12:15:47 PM 29.6317 -95.2944 38° Northeast 124 143 300 -290 Descending Houston Center
Mon 12:16:35 PM 29.6492 -95.2750 44° Northeast 133 153 200 -125 Descending Houston Center

Login

Don't have an account? Register now (free) for customized features, flight alerts, and more!